Time;durP1;ratioP1;P1;durP2;ratioP2;P2;SDS_P1;SDS_P2;PMS_P1;PMS_P2;Temp;Humidity;BMP_temperature;BMP_pressure;BME280_temperature;BME280_humidity;BME280_pressure;Samples;Min_cycle;Max_cycle;Signal;HPM_P1;HPM_P2
2022/07/07 00:01:39;;;;;;;;;;;;;;;25.14;90.47;99691.38;6242935;23;19919;-72
2022/07/07 00:04:04;;;;;;;;;;;;;;;25.14;91.02;99686.78;6242603;23;19986;-74
2022/07/07 00:06:30;;;;;;;;;;;;;;;25.20;90.41;99679.63;6242669;23;19912;-74
2022/07/07 00:08:55;;;;;;;;;;;;;;;25.17;88.97;99680.06;6242482;23;19912;-74
2022/07/07 00:11:21;;;;;;;;;;;;;;;25.10;89.06;99680.19;6243527;23;19919;-74
2022/07/07 00:13:47;;;;;;;;;;;;;;;25.07;88.74;99674.44;6243707;23;19953;-73
2022/07/07 00:16:12;;;;;;;;;;;;;;;24.86;89.12;99673.91;6243295;23;19934;-73
2022/07/07 00:18:38;;;;;;;;;;;;;;;24.70;90.35;99674.59;6242266;23;19927;-72
2022/07/07 00:21:03;;;;;;;;;;;;;;;24.53;90.90;99672.78;6242622;23;20347;-74
2022/07/07 00:23:29;;;;;;;;;;;;;;;24.34;91.79;99675.53;6242864;23;19918;-74
2022/07/07 00:25:55;;;;;;;;;;;;;;;24.17;93.03;99673.69;6242420;23;19994;-73
2022/07/07 00:28:20;;;;;;;;;;;;;;;24.02;93.85;99683.00;6242657;23;20378;-74
2022/07/07 00:30:47;;;;;;;;;;;;;;;23.94;94.29;99686.00;6242402;23;20268;-74
2022/07/07 00:33:12;;;;;;;;;;;;;;;23.97;96.45;99680.16;6242546;23;19999;-73
2022/07/07 00:35:38;;;;;;;;;;;;;;;23.96;97.88;99675.81;6241919;23;19915;-74
2022/07/07 00:38:03;;;;;;;;;;;;;;;23.99;96.01;99683.44;6242685;23;19907;-74
2022/07/07 00:40:29;;;;;;;;;;;;;;;24.11;96.30;99674.59;6242735;23;19911;-74
2022/07/07 00:42:54;;;;;;;;;;;;;;;24.23;94.91;99672.78;6215715;23;19943;-74
2022/07/07 00:45:20;;;;;;;;;;;;;;;24.34;95.44;99675.53;6242490;23;19922;-73
2022/07/07 00:47:46;;;;;;;;;;;;;;;24.39;92.74;99677.53;6242420;23;19961;-74
2022/07/07 00:50:11;;;;;;;;;;;;;;;24.38;93.39;99682.16;6215720;23;19933;-74
2022/07/07 00:52:37;;;;;;;;;;;;;;;24.44;93.06;99688.50;6242933;23;19945;-74
2022/07/07 00:55:03;;;;;;;;;;;;;;;24.48;93.30;99681.56;6242433;23;19922;-74
2022/07/07 00:57:34;;;;;;;;;;;;;;;24.52;93.98;99677.34;6242119;23;19950;-72
2022/07/07 01:00:05;;;;;;;;;;;;;;;24.54;92.08;99675.25;6243121;23;20236;-74
2022/07/07 01:02:31;;;;;;;;;;;;;;;24.38;92.33;99676.75;6242878;23;19911;-73
2022/07/07 01:05:00;;;;;;;;;;;;;;;24.28;94.58;99675.63;6242446;23;19916;-74
2022/07/07 01:07:26;;;;;;;;;;;;;;;24.11;94.68;99674.59;6215749;23;19993;-74
2022/07/07 01:09:53;;;;;;;;;;;;;;;24.06;95.76;99678.78;6241718;23;19914;-73
2022/07/07 01:12:18;;;;;;;;;;;;;;;24.11;96.29;99670.03;6241894;23;19911;-73
2022/07/07 01:14:43;;;;;;;;;;;;;;;24.17;97.40;99668.28;6241467;23;19986;-73
2022/07/07 01:17:09;;;;;;;;;;;;;;;24.24;95.68;99666.34;6241714;23;19918;-74
2022/07/07 01:19:34;;;;;;;;;;;;;;;24.28;94.72;99672.94;6241695;23;19915;-73
2022/07/07 01:22:03;;;;;;;;;;;;;;;24.28;95.38;99678.31;6241182;23;19954;-73
2022/07/07 01:24:29;;;;;;;;;;;;;;;24.25;94.47;99676.09;6241528;23;19957;-74
2022/07/07 01:27:08;;;;;;;;;;;;;;;24.20;97.25;99676.78;6241096;23;19959;-74
2022/07/07 01:29:35;;;;;;;;;;;;;;;24.07;98.42;99669.66;6241580;23;19911;-73
2022/07/07 01:32:02;;;;;;;;;;;;;;;23.93;98.21;99673.56;6241333;23;19915;-73
2022/07/07 01:34:27;;;;;;;;;;;;;;;23.76;100.00;99664.44;6241002;23;19908;-73
2022/07/07 01:36:53;;;;;;;;;;;;;;;23.57;100.00;99668.19;6241014;23;19911;-73
2022/07/07 01:39:18;;;;;;;;;;;;;;;23.44;100.00;99663.75;6241452;23;19911;-72
2022/07/07 01:41:43;;;;;;;;;;;;;;;23.42;100.00;99676.63;6240612;23;19977;-73
2022/07/07 01:44:09;;;;;;;;;;;;;;;23.46;100.00;99672.44;6241445;23;19912;-73
2022/07/07 01:46:34;;;;;;;;;;;;;;;23.49;100.00;99671.19;6241032;23;19919;-75
2022/07/07 01:49:00;;;;;;;;;;;;;;;23.54;100.00;99674.88;6241143;23;19907;-73
2022/07/07 01:51:25;;;;;;;;;;;;;;;23.60;100.00;99673.13;6241451;23;19919;-73
2022/07/07 01:53:50;;;;;;;;;;;;;;;23.51;100.00;99675.28;6240514;23;19911;-74
2022/07/07 01:56:16;;;;;;;;;;;;;;;23.44;100.00;99673.72;6241228;23;19990;-73
2022/07/07 01:58:41;;;;;;;;;;;;;;;23.41;100.00;99663.38;6214074;23;19934;-73
2022/07/07 02:01:07;;;;;;;;;;;;;;;23.35;100.00;99666.94;6241370;23;19907;-73
2022/07/07 02:03:32;;;;;;;;;;;;;;;23.37;100.00;99670.25;6242812;23;19907;-74
2022/07/07 02:05:58;;;;;;;;;;;;;;;23.33;100.00;99683.31;6244609;23;19919;-74
2022/07/07 02:08:23;;;;;;;;;;;;;;;23.22;100.00;99678.66;6244711;23;19930;-73
2022/07/07 02:13:33;;;;;;;;;;;;;;;23.20;100.00;99684.28;6244635;23;19911;-73
2022/07/07 02:15:58;;;;;;;;;;;;;;;23.15;100.00;99686.00;6244464;23;19918;-73
2022/07/07 02:18:23;;;;;;;;;;;;;;;23.10;100.00;99683.94;6244219;23;19966;-73
2022/07/07 02:20:49;;;;;;;;;;;;;;;23.07;100.00;99689.78;6244451;23;19942;-73
2022/07/07 02:23:14;;;;;;;;;;;;;;;23.12;100.00;99686.44;6244766;23;19984;-73
2022/07/07 02:25:40;;;;;;;;;;;;;;;23.16;100.00;99683.06;6243850;23;19919;-73
2022/07/07 02:28:05;;;;;;;;;;;;;;;23.16;100.00;99677.69;6244363;23;20310;-73
2022/07/07 02:30:31;;;;;;;;;;;;;;;23.13;100.00;99682.69;6244383;23;19934;-73
2022/07/07 02:32:57;;;;;;;;;;;;;;;23.03;100.00;99685.88;6243825;23;20027;-74
2022/07/07 02:35:22;;;;;;;;;;;;;;;22.79;100.00;99681.31;6217599;23;19946;-73
2022/07/07 02:37:48;;;;;;;;;;;;;;;22.57;100.00;99682.66;6217666;23;19934;-74
2022/07/07 02:40:13;;;;;;;;;;;;;;;22.48;100.00;99678.59;6244294;23;20236;-72
2022/07/07 02:42:38;;;;;;;;;;;;;;;22.55;100.00;99674.03;6243885;23;19911;-74
2022/07/07 02:45:04;;;;;;;;;;;;;;;22.52;100.00;99680.63;6244037;23;19970;-74
2022/07/07 02:47:29;;;;;;;;;;;;;;;22.45;100.00;99667.22;6244238;23;19965;-76
2022/07/07 02:49:55;;;;;;;;;;;;;;;22.45;100.00;99669.91;6244461;23;19919;-74
2022/07/07 02:52:20;;;;;;;;;;;;;;;22.53;100.00;99662.66;6217786;23;19912;-74
2022/07/07 02:54:46;;;;;;;;;;;;;;;22.65;100.00;99674.34;6244632;23;19916;-75
2022/07/07 02:57:11;;;;;;;;;;;;;;;22.72;100.00;99667.09;6245242;23;19933;-74
2022/07/07 02:59:36;;;;;;;;;;;;;;;22.74;100.00;99673.88;6245605;23;19915;-74
2022/07/07 03:02:02;;;;;;;;;;;;;;;22.83;100.00;99677.16;6245723;23;19939;-74
2022/07/07 03:04:28;;;;;;;;;;;;;;;22.91;100.00;99674.19;6217934;23;19935;-74
2022/07/07 03:06:53;;;;;;;;;;;;;;;22.90;100.00;99677.94;6243976;23;19911;-73
2022/07/07 03:09:18;;;;;;;;;;;;;;;22.81;100.00;99689.97;6244427;23;19958;-74
2022/07/07 03:11:44;;;;;;;;;;;;;;;22.76;100.00;99697.88;6243903;23;19912;-73
2022/07/07 03:14:09;;;;;;;;;;;;;;;22.55;100.00;99695.53;6216262;23;19950;-74
2022/07/07 03:16:35;;;;;;;;;;;;;;;22.39;100.00;99689.59;6241994;23;19911;-73
2022/07/07 03:19:00;;;;;;;;;;;;;;;22.38;100.00;99690.63;6241728;23;19995;-73
2022/07/07 03:21:26;;;;;;;;;;;;;;;22.43;100.00;99687.34;6242490;23;19915;-73
2022/07/07 03:23:51;;;;;;;;;;;;;;;22.52;100.00;99691.41;6215218;23;19916;-74
2022/07/07 03:26:16;;;;;;;;;;;;;;;22.61;100.00;99686.59;6242212;23;19912;-74
2022/07/07 03:28:42;;;;;;;;;;;;;;;22.61;100.00;99694.66;6241489;23;19917;-74
2022/07/07 03:31:07;;;;;;;;;;;;;;;22.55;100.00;99690.97;6242007;23;19918;-74
2022/07/07 03:33:33;;;;;;;;;;;;;;;22.61;100.00;99695.50;6241824;23;19908;-73
2022/07/07 03:35:58;;;;;;;;;;;;;;;22.55;100.00;99684.78;6241808;23;19915;-74
2022/07/07 03:38:24;;;;;;;;;;;;;;;22.54;100.00;99689.31;6242642;23;19998;-74
2022/07/07 03:40:49;;;;;;;;;;;;;;;22.51;100.00;99688.91;6243901;23;19915;-74
2022/07/07 03:43:15;;;;;;;;;;;;;;;22.39;100.00;99695.00;6214817;23;19997;-74
2022/07/07 03:45:40;;;;;;;;;;;;;;;22.39;100.00;99683.41;6241407;23;19911;-74
2022/07/07 03:48:06;;;;;;;;;;;;;;;22.45;100.00;99679.84;6215154;23;20048;-74
2022/07/07 03:50:31;;;;;;;;;;;;;;;22.54;100.00;99683.13;6242683;23;19919;-75
2022/07/07 03:52:57;;;;;;;;;;;;;;;22.59;100.00;99691.34;6242145;23;19912;-75
2022/07/07 03:55:23;;;;;;;;;;;;;;;22.63;100.00;99704.16;6242840;23;19918;-74
2022/07/07 03:57:48;;;;;;;;;;;;;;;22.66;100.00;99708.28;6241775;23;19938;-73
2022/07/07 04:00:14;;;;;;;;;;;;;;;22.63;100.00;99708.69;6241833;23;19916;-75
2022/07/07 04:02:39;;;;;;;;;;;;;;;22.63;100.00;99708.69;6241924;23;19912;-74
2022/07/07 04:05:05;;;;;;;;;;;;;;;22.63;100.00;99719.47;6243187;23;19918;-74
2022/07/07 04:07:33;;;;;;;;;;;;;;;22.67;100.00;99710.75;6243438;23;19930;-74
2022/07/07 04:09:59;;;;;;;;;;;;;;;22.75;100.00;99717.75;6242892;23;19912;-73
2022/07/07 04:12:25;;;;;;;;;;;;;;;22.74;100.00;99727.69;6243475;23;19911;-75
2022/07/07 04:14:50;;;;;;;;;;;;;;;22.77;100.00;99731.81;6216042;23;19919;-74
2022/07/07 04:17:16;;;;;;;;;;;;;;;22.80;100.00;99724.13;6243704;23;19923;-74
2022/07/07 04:19:41;;;;;;;;;;;;;;;22.70;100.00;99725.63;6243708;23;19911;-74
2022/07/07 04:22:07;;;;;;;;;;;;;;;22.72;100.00;99734.34;6243328;23;19908;-75
2022/07/07 04:24:32;;;;;;;;;;;;;;;22.79;100.00;99729.75;6242828;23;19911;-74
2022/07/07 04:26:57;;;;;;;;;;;;;;;22.79;100.00;99735.97;6241843;23;19919;-75
2022/07/07 04:29:23;;;;;;;;;;;;;;;22.83;100.00;99736.34;6242839;23;19908;-75
2022/07/07 04:31:48;;;;;;;;;;;;;;;22.85;100.00;99736.97;6241932;23;20438;-75
2022/07/07 04:34:14;;;;;;;;;;;;;;;22.87;100.00;99726.78;6215542;23;19919;-75
2022/07/07 04:36:40;;;;;;;;;;;;;;;22.90;100.00;99726.38;6242703;23;19993;-73
2022/07/07 04:39:05;;;;;;;;;;;;;;;22.79;100.00;99724.38;6242601;23;19990;-74
2022/07/07 04:41:31;;;;;;;;;;;;;;;22.76;100.00;99720.25;6242506;23;19993;-74
2022/07/07 04:43:57;;;;;;;;;;;;;;;22.76;100.00;99714.03;6242723;23;19975;-74
2022/07/07 04:46:22;;;;;;;;;;;;;;;22.67;100.00;99712.63;6242113;23;19954;-74
2022/07/07 04:48:47;;;;;;;;;;;;;;;22.70;100.00;99714.88;6241261;23;19915;-73
2022/07/07 04:51:13;;;;;;;;;;;;;;;22.67;100.00;99720.69;6242187;23;19907;-74
2022/07/07 04:53:38;;;;;;;;;;;;;;;22.64;100.00;99723.81;6215077;23;19919;-74
2022/07/07 04:56:05;;;;;;;;;;;;;;;22.65;100.00;99728.16;6241791;23;20082;-74
2022/07/07 04:58:30;;;;;;;;;;;;;;;22.64;100.00;99731.88;6241804;23;20280;-73
2022/07/07 05:00:55;;;;;;;;;;;;;;;22.54;100.00;99736.91;6241493;23;19911;-75
2022/07/07 05:03:21;;;;;;;;;;;;;;;22.58;100.00;99732.72;6241447;23;19998;-74
2022/07/07 05:05:46;;;;;;;;;;;;;;;22.65;100.00;99728.16;6241075;23;19923;-75
2022/07/07 05:08:12;;;;;;;;;;;;;;;22.75;100.00;99725.81;6241760;23;19990;-74
2022/07/07 05:10:37;;;;;;;;;;;;;;;22.81;100.00;99722.28;6214668;23;19908;-74
2022/07/07 05:13:03;;;;;;;;;;;;;;;22.89;100.00;99729.25;6242199;23;19918;-73
2022/07/07 05:15:28;;;;;;;;;;;;;;;22.98;100.00;99723.38;6242247;23;19965;-75
2022/07/07 05:17:54;;;;;;;;;;;;;;;23.07;100.00;99727.47;6240488;23;19911;-74
2022/07/07 05:20:19;;;;;;;;;;;;;;;23.15;100.00;99735.25;6241398;23;19912;-75
2022/07/07 05:22:44;;;;;;;;;;;;;;;23.22;100.00;99727.94;6241626;23;19918;-75
2022/07/07 05:25:10;;;;;;;;;;;;;;;23.33;100.00;99741.75;6241392;23;19914;-74
2022/07/07 05:27:36;;;;;;;;;;;;;;;23.39;100.00;99748.91;6241275;23;19919;-74
2022/07/07 05:30:01;;;;;;;;;;;;;;;23.39;100.00;99747.06;6241547;23;19908;-75
2022/07/07 05:32:27;;;;;;;;;;;;;;;23.41;100.00;99749.53;6241726;23;19958;-74
2022/07/07 05:34:52;;;;;;;;;;;;;;;23.45;100.00;99745.34;6214070;23;19912;-74
2022/07/07 05:37:18;;;;;;;;;;;;;;;23.46;100.00;99755.09;6241575;23;19911;-74
2022/07/07 05:39:43;;;;;;;;;;;;;;;23.56;100.00;99750.06;6241407;23;19918;-74
2022/07/07 05:42:08;;;;;;;;;;;;;;;23.66;100.00;99753.06;6241667;23;19946;-74
2022/07/07 05:44:34;;;;;;;;;;;;;;;23.73;100.00;99751.13;6241438;23;19911;-73
2022/07/07 05:46:59;;;;;;;;;;;;;;;23.83;100.00;99751.44;6240982;23;20048;-74
2022/07/07 05:49:25;;;;;;;;;;;;;;;23.89;100.00;99755.94;6241081;23;19907;-75
2022/07/07 05:51:50;;;;;;;;;;;;;;;23.92;100.00;99763.53;6241097;23;19991;-75
2022/07/07 05:54:16;;;;;;;;;;;;;;;23.98;100.00;99762.66;6241809;23;19961;-75
2022/07/07 05:56:41;;;;;;;;;;;;;;;24.04;100.00;99750.97;6240294;23;19919;-74
2022/07/07 05:59:06;;;;;;;;;;;;;;;24.13;100.00;99764.16;6241800;23;19986;-76
2022/07/07 06:01:32;;;;;;;;;;;;;;;24.20;100.00;99773.88;6241875;23;19912;-73
2022/07/07 06:03:58;;;;;;;;;;;;;;;24.26;100.00;99780.22;6241045;23;19916;-73
2022/07/07 06:06:23;;;;;;;;;;;;;;;24.35;100.00;99778.84;6241941;23;19919;-74
2022/07/07 06:08:49;;;;;;;;;;;;;;;24.40;100.00;99768.19;6241593;23;19938;-73
2022/07/07 06:11:14;;;;;;;;;;;;;;;24.46;100.00;99770.00;6242077;23;19911;-73
2022/07/07 06:13:39;;;;;;;;;;;;;;;24.54;100.00;99766.16;6241865;23;19931;-74
2022/07/07 06:16:05;;;;;;;;;;;;;;;24.56;100.00;99775.69;6215132;23;19912;-73
2022/07/07 06:18:30;;;;;;;;;;;;;;;24.63;99.95;99775.56;6241542;23;19980;-72
2022/07/07 06:20:56;;;;;;;;;;;;;;;24.75;100.00;99768.34;6241813;23;19916;-74
2022/07/07 06:23:21;;;;;;;;;;;;;;;24.85;100.00;99769.47;6241927;23;19939;-73
2022/07/07 06:25:47;;;;;;;;;;;;;;;24.88;96.46;99766.31;6241413;23;19954;-73
2022/07/07 06:28:12;;;;;;;;;;;;;;;24.97;94.74;99779.50;6242035;23;20382;-73
2022/07/07 06:30:38;;;;;;;;;;;;;;;25.04;93.57;99778.31;6241970;23;19914;-72
2022/07/07 06:33:03;;;;;;;;;;;;;;;25.11;91.84;99772.81;6242111;23;19939;-73
2022/07/07 06:35:29;;;;;;;;;;;;;;;25.15;90.98;99766.72;6241520;23;19912;-75
2022/07/07 06:37:55;;;;;;;;;;;;;;;25.20;91.16;99777.69;6241045;23;19911;-74
2022/07/07 06:40:21;;;;;;;;;;;;;;;25.24;91.84;99778.03;6241904;23;19908;-74
2022/07/07 06:42:46;;;;;;;;;;;;;;;25.23;92.74;99776.38;6241345;23;19921;-75
2022/07/07 06:45:20;;;;;;;;;;;;;;;25.25;90.27;99779.66;6241992;23;19918;-75
2022/07/07 06:47:46;;;;;;;;;;;;;;;25.31;91.30;99786.84;6214827;23;19927;-74
2022/07/07 06:50:11;;;;;;;;;;;;;;;25.37;90.51;99777.81;6242485;23;19912;-74
2022/07/07 06:52:37;;;;;;;;;;;;;;;25.38;91.53;99795.66;6243058;23;19911;-74
2022/07/07 06:55:04;;;;;;;;;;;;;;;25.41;90.21;99795.19;6242369;23;19922;-74
2022/07/07 06:57:29;;;;;;;;;;;;;;;25.43;90.33;99784.97;6243688;23;20217;-72
2022/07/07 06:59:55;;;;;;;;;;;;;;;25.41;89.84;99772.75;6242994;23;20017;-73
2022/07/07 07:02:20;;;;;;;;;;;;;;;25.46;90.07;99779.09;6243627;23;19916;-74
2022/07/07 07:04:47;;;;;;;;;;;;;;;25.49;90.58;99786.75;6242514;23;19959;-74
2022/07/07 07:07:12;;;;;;;;;;;;;;;25.53;89.68;99779.81;6243296;23;19938;-74
2022/07/07 07:09:38;;;;;;;;;;;;;;;25.50;89.66;99776.78;6243030;23;19919;-74
2022/07/07 07:12:03;;;;;;;;;;;;;;;25.52;89.35;99775.47;6243367;23;19907;-74
2022/07/07 07:14:29;;;;;;;;;;;;;;;25.58;89.39;99769.16;6217085;23;19911;-74
2022/07/07 07:16:54;;;;;;;;;;;;;;;25.63;87.84;99774.66;6243411;23;19923;-74
2022/07/07 07:19:19;;;;;;;;;;;;;;;25.69;89.91;99776.44;6243452;23;19912;-75
2022/07/07 07:21:45;;;;;;;;;;;;;;;25.74;87.36;99783.03;6243768;23;19919;-75
2022/07/07 07:24:12;;;;;;;;;;;;;;;25.74;86.74;99796.53;6243659;23;19918;-74
2022/07/07 07:26:37;;;;;;;;;;;;;;;25.73;87.08;99795.72;6243404;23;19963;-75
2022/07/07 07:29:03;;;;;;;;;;;;;;;25.72;88.68;99791.38;6243590;23;19938;-74
2022/07/07 07:31:28;;;;;;;;;;;;;;;25.74;88.69;99805.47;6243831;23;20375;-73
2022/07/07 07:33:54;;;;;;;;;;;;;;;25.74;88.24;99804.66;6243111;23;19974;-74
2022/07/07 07:36:19;;;;;;;;;;;;;;;25.72;86.60;99806.75;6243780;23;19918;-74
2022/07/07 07:38:44;;;;;;;;;;;;;;;25.72;85.65;99802.19;6243575;23;19939;-74
2022/07/07 07:41:11;;;;;;;;;;;;;;;25.76;85.78;99797.13;6216765;23;19915;-75
2022/07/07 07:43:36;;;;;;;;;;;;;;;25.78;84.19;99795.00;6243092;23;19921;-73
2022/07/07 07:46:02;;;;;;;;;;;;;;;25.83;84.27;99792.41;6243382;23;19916;-75
2022/07/07 07:48:27;;;;;;;;;;;;;;;25.90;82.21;99804.75;6243528;23;19911;-75
2022/07/07 07:50:52;;;;;;;;;;;;;;;25.99;81.70;99807.91;6216795;23;20002;-75
2022/07/07 07:53:18;;;;;;;;;;;;;;;26.09;80.67;99808.16;6243646;23;20010;-73
2022/07/07 07:55:44;;;;;;;;;;;;;;;26.20;80.50;99799.19;6242546;23;19982;-75
2022/07/07 07:58:10;;;;;;;;;;;;;;;26.28;78.13;99796.13;6242573;23;19918;-75
2022/07/07 08:00:35;;;;;;;;;;;;;;;26.36;76.78;99793.06;6242670;23;19994;-75
2022/07/07 08:03:01;;;;;;;;;;;;;;;26.43;76.61;99796.47;6242952;23;19907;-75
2022/07/07 08:05:26;;;;;;;;;;;;;;;26.49;76.63;99798.22;6242720;23;19918;-75
2022/07/07 08:07:52;;;;;;;;;;;;;;;26.57;75.49;99794.28;6216029;23;19937;-75
2022/07/07 08:10:17;;;;;;;;;;;;;;;26.63;74.87;99800.59;6216080;23;19994;-75
2022/07/07 08:12:43;;;;;;;;;;;;;;;26.62;74.94;99790.88;6242473;23;19914;-75
2022/07/07 08:15:09;;;;;;;;;;;;;;;26.57;75.98;99788.06;6242936;23;20225;-75
2022/07/07 08:17:35;;;;;;;;;;;;;;;26.60;76.18;99788.41;6243017;23;19948;-75
2022/07/07 08:23:28;;;;;;;;;;;;;;;26.62;76.43;99782.75;6243184;23;19993;-74
2022/07/07 08:25:54;;;;;;;;;;;;;;;26.71;77.68;99784.00;6241971;23;19991;-75
2022/07/07 08:28:19;;;;;;;;;;;;;;;26.73;77.60;99781.88;6242656;23;19935;-75
2022/07/07 08:30:47;;;;;;;;;;;;;;;26.64;77.69;99777.91;6242137;23;20355;-75
2022/07/07 08:33:16;;;;;;;;;;;;;;;26.59;76.75;99775.09;6242698;23;20213;-74
2022/07/07 08:35:41;;;;;;;;;;;;;;;26.60;75.56;99772.16;6242253;23;19911;-74
2022/07/07 08:38:07;;;;;;;;;;;;;;;26.66;75.80;99775.78;6215853;23;19918;-73
2022/07/07 08:40:32;;;;;;;;;;;;;;;26.65;77.28;99779.53;6241918;23;19961;-75
2022/07/07 08:42:59;;;;;;;;;;;;;;;26.62;78.80;99774.63;6240981;23;19964;-74
2022/07/07 08:45:24;;;;;;;;;;;;;;;26.63;78.60;99774.38;6215318;23;19918;-75
2022/07/07 08:47:50;;;;;;;;;;;;;;;26.68;79.01;99773.66;6241280;23;20487;-74
2022/07/07 08:50:16;;;;;;;;;;;;;;;26.74;75.92;99780.81;6239834;23;20378;-73
2022/07/07 08:52:42;;;;;;;;;;;;;;;26.74;74.07;99778.09;6241370;23;19914;-74
2022/07/07 08:55:09;;;;;;;;;;;;;;;26.67;74.19;99777.44;6241797;23;19911;-74
2022/07/07 08:57:35;;;;;;;;;;;;;;;26.68;74.58;99776.38;6241189;23;19986;-75
2022/07/07 09:00:00;;;;;;;;;;;;;;;26.74;73.46;99775.41;6241805;23;19938;-75
2022/07/07 09:02:26;;;;;;;;;;;;;;;26.80;73.37;99777.94;6241259;23;19964;-74
2022/07/07 09:04:52;;;;;;;;;;;;;;;26.89;74.60;99773.81;6241065;23;19919;-74
2022/07/07 09:07:18;;;;;;;;;;;;;;;26.95;76.06;99774.72;6241832;23;19911;-75
2022/07/07 09:09:43;;;;;;;;;;;;;;;27.03;74.50;99777.03;6241752;23;19912;-75
2022/07/07 09:12:10;;;;;;;;;;;;;;;27.09;71.37;99778.78;6240952;23;19981;-74
2022/07/07 09:14:45;;;;;;;;;;;;;;;27.12;72.25;99770.16;6241043;23;19973;-75
2022/07/07 09:17:37;;;;;;;;;;;;;;;27.14;74.18;99768.03;6241556;23;19943;-73
2022/07/07 09:20:05;;;;;;;;;;;;;;;27.21;72.49;99774.09;6237791;23;19915;-74
2022/07/07 09:22:56;;;;;;;;;;;;;;;27.27;72.40;99762.25;6241468;23;19978;-74
2022/07/07 09:25:23;;;;;;;;;;;;;;;27.33;72.65;99781.34;6238606;23;19919;-75
2022/07/07 09:27:49;;;;;;;;;;;;;;;27.36;72.95;99780.81;6240817;23;19911;-75
2022/07/07 09:30:24;;;;;;;;;;;;;;;27.37;73.02;99766.22;6241192;23;19915;-75
2022/07/07 09:32:50;;;;;;;;;;;;;;;27.39;73.22;99761.38;6241200;23;20324;-75
2022/07/07 09:38:16;;;;;;;;;;;;;;;27.53;69.33;99757.28;6241446;23;19982;-73
2022/07/07 09:40:59;;;;;;;;;;;;;;;27.60;68.15;99756.03;6241376;23;19918;-75
2022/07/07 09:43:29;;;;;;;;;;;;;;;27.68;66.89;99762.94;6241043;23;19911;-75
2022/07/07 09:46:05;;;;;;;;;;;;;;;27.73;68.16;99771.16;6240808;23;19912;-74
2022/07/07 09:48:31;;;;;;;;;;;;;;;27.76;66.85;99764.38;6241251;23;19911;-76
2022/07/07 09:51:29;;;;;;;;;;;;;;;27.82;67.72;99764.22;6240959;23;19911;-74
2022/07/07 09:53:56;;;;;;;;;;;;;;;27.83;69.65;99768.56;6206545;23;19912;-76
2022/07/07 09:56:22;;;;;;;;;;;;;;;27.86;68.64;99759.94;6241516;23;19911;-74
2022/07/07 09:58:48;;;;;;;;;;;;;;;27.97;65.66;99764.44;6241007;23;19918;-72
2022/07/07 10:01:14;;;;;;;;;;;;;;;28.02;63.14;99753.66;6214668;23;19908;-74
2022/07/07 10:03:42;;;;;;;;;;;;;;;28.09;64.15;99753.47;6241429;23;19939;-73
2022/07/07 10:06:08;;;;;;;;;;;;;;;28.13;62.24;99745.63;6241202;23;19912;-75
2022/07/07 10:08:34;;;;;;;;;;;;;;;28.20;57.28;99752.53;6241527;23;20383;-74
2022/07/07 10:11:02;;;;;;;;;;;;;;;28.23;56.37;99749.31;6240975;23;19916;-73
2022/07/07 10:13:29;;;;;;;;;;;;;;;28.29;59.96;99748.28;6241339;23;19918;-74
2022/07/07 10:15:55;;;;;;;;;;;;;;;28.37;57.56;99733.47;6240746;23;19907;-74
2022/07/07 10:18:21;;;;;;;;;;;;;;;28.41;57.52;99754.41;6241103;23;19926;-74
2022/07/07 10:20:46;;;;;;;;;;;;;;;28.41;57.72;99740.84;6240374;23;19973;-74
2022/07/07 10:23:12;;;;;;;;;;;;;;;28.46;56.23;99750.94;6241473;23;19911;-74
2022/07/07 10:25:37;;;;;;;;;;;;;;;28.51;56.49;99743.66;6242748;23;19954;-73
2022/07/07 10:28:03;;;;;;;;;;;;;;;28.55;55.40;99741.28;6242931;23;19919;-74
2022/07/07 10:30:29;;;;;;;;;;;;;;;28.58;57.11;99735.31;6242971;23;19990;-73
2022/07/07 10:32:55;;;;;;;;;;;;;;;28.67;55.00;99733.78;6242774;23;19954;-73
2022/07/07 10:35:23;;;;;;;;;;;;;;;28.73;55.16;99732.81;6242689;23;19914;-73
2022/07/07 10:37:53;;;;;;;;;;;;;;;28.75;54.59;99725.19;6242634;23;19939;-74
2022/07/07 10:40:23;;;;;;;;;;;;;;;28.81;54.86;99724.16;6216712;23;19915;-73
2022/07/07 10:43:07;;;;;;;;;;;;;;;28.83;55.65;99716.59;6242907;23;19918;-73
2022/07/07 10:45:32;;;;;;;;;;;;;;;28.87;54.44;99712.28;6242808;23;20186;-74
2022/07/07 10:47:58;;;;;;;;;;;;;;;28.88;55.84;99708.47;6242734;23;19911;-73
2022/07/07 10:50:27;;;;;;;;;;;;;;;28.92;54.96;99698.72;6242852;23;19907;-73
2022/07/07 10:52:53;;;;;;;;;;;;;;;28.94;54.08;99703.09;6243055;23;20033;-74
2022/07/07 10:55:19;;;;;;;;;;;;;;;29.01;54.23;99706.41;6243400;23;19911;-73
2022/07/07 10:57:45;;;;;;;;;;;;;;;29.08;54.75;99707.03;6242954;23;19911;-73
2022/07/07 11:00:15;;;;;;;;;;;;;;;29.13;54.34;99702.44;6243536;23;20213;-73
2022/07/07 11:02:42;;;;;;;;;;;;;;;29.13;57.29;99698.91;6242764;23;20296;-74
2022/07/07 11:05:13;;;;;;;;;;;;;;;29.13;55.71;99686.16;6243182;22;20280;-74
2022/07/07 11:07:59;;;;;;;;;;;;;;;29.15;54.09;99691.31;6243218;23;19918;-73
2022/07/07 11:10:36;;;;;;;;;;;;;;;29.27;53.98;99691.97;6244475;23;20247;-74
2022/07/07 11:13:14;;;;;;;;;;;;;;;29.35;52.92;99685.22;6244037;23;19918;-74
2022/07/07 11:15:40;;;;;;;;;;;;;;;29.40;52.96;99686.06;6243519;23;19911;-74
2022/07/07 11:18:05;;;;;;;;;;;;;;;29.39;52.66;99676.31;6243699;23;19911;-75
2022/07/07 11:20:31;;;;;;;;;;;;;;;29.49;52.49;99681.78;6243697;23;19907;-75
2022/07/07 11:23:07;;;;;;;;;;;;;;;29.54;52.08;99670.13;6243725;23;19915;-73
2022/07/07 11:25:33;;;;;;;;;;;;;;;29.49;53.14;99675.53;6244215;23;20280;-73
2022/07/07 11:28:00;;;;;;;;;;;;;;;29.52;52.14;99664.94;6243728;23;20248;-73
2022/07/07 11:30:25;;;;;;;;;;;;;;;29.47;52.62;99662.19;6244059;23;19918;-74
2022/07/07 11:32:55;;;;;;;;;;;;;;;29.53;52.32;99661.16;6243559;23;19915;-74
2022/07/07 11:35:20;;;;;;;;;;;;;;;29.57;51.75;99656.81;6216262;23;20263;-74
2022/07/07 11:37:46;;;;;;;;;;;;;;;29.66;51.22;99638.91;6243475;23;20047;-74
2022/07/07 11:40:12;;;;;;;;;;;;;;;29.64;50.80;99635.63;6244079;23;19911;-74
2022/07/07 11:42:38;;;;;;;;;;;;;;;29.67;52.12;99634.28;6243398;23;19987;-73
2022/07/07 11:45:03;;;;;;;;;;;;;;;29.71;52.17;99629.94;6243835;23;19999;-74
2022/07/07 11:47:33;;;;;;;;;;;;;;;29.84;49.13;99640.34;6244232;23;20332;-74
2022/07/07 11:49:58;;;;;;;;;;;;;;;29.82;49.04;99626.19;6242844;23;20319;-72
2022/07/07 11:52:24;;;;;;;;;;;;;;;29.84;50.92;99615.03;6243687;23;19911;-74
2022/07/07 11:54:50;;;;;;;;;;;;;;;29.95;49.34;99619.47;6216207;23;19922;-72
2022/07/07 11:57:32;;;;;;;;;;;;;;;30.05;48.48;99606.69;6216929;23;19907;-73
2022/07/07 12:00:14;;;;;;;;;;;;;;;29.97;48.62;99612.69;6216122;23;20279;-74
2022/07/07 12:02:40;;;;;;;;;;;;;;;29.93;49.78;99608.03;6242653;23;19911;-74
2022/07/07 12:05:06;;;;;;;;;;;;;;;30.07;48.81;99611.88;6241533;23;19991;-74
2022/07/07 12:07:31;;;;;;;;;;;;;;;30.21;49.07;99602.13;6242251;23;19939;-75
2022/07/07 12:09:57;;;;;;;;;;;;;;;30.45;48.12;99605.97;6215279;23;19915;-75
2022/07/07 12:12:22;;;;;;;;;;;;;;;30.61;48.14;99605.97;6242386;23;19912;-75
2022/07/07 12:14:48;;;;;;;;;;;;;;;30.80;47.25;99604.34;6242373;23;19926;-75
2022/07/07 12:17:13;;;;;;;;;;;;;;;30.90;46.31;99607.88;6242794;23;19918;-75
2022/07/07 12:19:48;;;;;;;;;;;;;;;30.94;46.15;99610.84;6242064;23;19953;-75
2022/07/07 12:22:14;;;;;;;;;;;;;;;30.96;46.72;99603.22;6242841;23;19958;-75
2022/07/07 12:24:39;;;;;;;;;;;;;;;30.94;46.91;99605.41;6242341;23;19911;-75
2022/07/07 12:27:15;;;;;;;;;;;;;;;31.09;46.09;99605.44;6242650;23;19911;-75
2022/07/07 12:29:57;;;;;;;;;;;;;;;31.33;46.75;99599.38;6242480;23;19919;-75
2022/07/07 12:32:23;;;;;;;;;;;;;;;31.55;44.46;99600.66;6242366;23;19911;-72
2022/07/07 12:34:49;;;;;;;;;;;;;;;31.84;44.83;99591.81;6241689;23;19962;-74
2022/07/07 12:37:14;;;;;;;;;;;;;;;32.06;43.61;99579.38;6242759;23;19912;-73
2022/07/07 12:39:42;;;;;;;;;;;;;;;32.28;42.96;99570.00;6242135;23;19918;-73
2022/07/07 12:42:07;;;;;;;;;;;;;;;32.48;42.97;99569.81;6242090;23;19926;-74
2022/07/07 12:44:35;;;;;;;;;;;;;;;32.60;43.08;99566.72;6242549;23;20328;-75
2022/07/07 12:47:01;;;;;;;;;;;;;;;32.40;41.69;99567.72;6241883;23;20023;-74
2022/07/07 12:49:26;;;;;;;;;;;;;;;32.09;41.73;99557.00;6242221;23;19922;-74